createdAt,value
2022-12-16T00:01:50.170Z,34.15
2022-12-16T00:04:37.495Z,40.55
2022-12-16T00:07:23.464Z,39.83
2022-12-16T00:10:09.289Z,37.00
2022-12-16T00:12:55.096Z,39.65
2022-12-16T00:15:40.851Z,35.20
2022-12-16T00:18:26.691Z,44.67
2022-12-16T00:21:12.998Z,34.60
2022-12-16T00:23:58.959Z,34.40
2022-12-16T00:26:44.532Z,39.03
2022-12-16T00:29:30.326Z,40.35
2022-12-16T00:32:16.138Z,47.20
2022-12-16T00:35:01.759Z,44.40
2022-12-16T00:37:47.836Z,43.88
2022-12-16T00:40:33.419Z,44.05
2022-12-16T00:43:20.377Z,39.22
2022-12-16T00:46:06.659Z,37.58
2022-12-16T00:48:52.532Z,45.75
2022-12-16T00:51:38.307Z,37.22
2022-12-16T00:54:24.142Z,37.75
2022-12-16T00:57:09.634Z,40.70
2022-12-16T00:59:55.255Z,42.95
2022-12-16T01:02:42.090Z,43.72
2022-12-16T01:05:28.090Z,35.90
2022-12-16T01:08:13.742Z,40.65
2022-12-16T01:11:00.213Z,35.67
2022-12-16T01:13:46.935Z,33.65
2022-12-16T01:16:32.784Z,33.85
2022-12-16T01:19:19.710Z,32.90
2022-12-16T01:22:05.522Z,33.67
2022-12-16T01:24:51.263Z,37.00
2022-12-16T01:27:36.939Z,37.20
2022-12-16T01:30:23.074Z,37.55
2022-12-16T01:33:09.451Z,38.80
2022-12-16T01:36:07.027Z,33.95
2022-12-16T01:38:53.042Z,36.92
2022-12-16T01:41:39.129Z,36.00
2022-12-16T01:44:26.550Z,36.30
2022-12-16T01:47:22.476Z,42.00
2022-12-16T01:50:12.167Z,38.85
2022-12-16T01:52:59.884Z,35.35
2022-12-16T01:55:50.370Z,38.22
2022-12-16T01:58:37.856Z,41.53
2022-12-16T02:01:23.743Z,44.00
2022-12-16T02:04:09.904Z,41.80
2022-12-16T02:06:55.869Z,42.63
2022-12-16T02:09:41.800Z,40.33
2022-12-16T02:12:48.420Z,40.72
2022-12-16T02:16:25.988Z,42.25
2022-12-16T02:19:49.157Z,43.38
2022-12-16T02:22:47.803Z,42.30
2022-12-16T02:25:51.723Z,40.45
2022-12-16T02:29:21.119Z,45.20
2022-12-16T02:32:26.517Z,39.85
2022-12-16T02:35:25.450Z,50.97
2022-12-16T02:38:43.144Z,50.95
2022-12-16T02:41:47.483Z,40.97
2022-12-16T02:44:55.279Z,33.53
2022-12-16T02:47:41.400Z,36.85
2022-12-16T02:50:32.901Z,46.20
2022-12-16T02:53:20.607Z,38.58
2022-12-16T02:56:27.446Z,43.22
2022-12-16T02:59:13.269Z,41.08
2022-12-16T03:02:12.670Z,44.22
2022-12-16T03:05:04.594Z,43.58
2022-12-16T03:07:52.757Z,54.55
2022-12-16T03:10:45.647Z,46.50
2022-12-16T03:13:36.822Z,37.07
2022-12-16T03:16:26.953Z,45.03
2022-12-16T03:19:13.861Z,45.85
2022-12-16T03:22:29.475Z,51.35
2022-12-16T03:25:16.543Z,47.83
2022-12-16T03:28:08.351Z,51.00
2022-12-16T03:31:04.959Z,46.80
2022-12-16T03:33:57.748Z,42.20
2022-12-16T03:36:50.019Z,41.17
2022-12-16T03:39:47.072Z,45.88
2022-12-16T03:42:34.106Z,46.83
2022-12-16T03:45:24.886Z,46.97
2022-12-16T03:48:12.897Z,44.95
2022-12-16T03:50:59.054Z,41.28
2022-12-16T03:53:45.669Z,43.30
2022-12-16T03:56:31.311Z,46.95
2022-12-16T03:59:17.105Z,40.63
2022-12-16T04:02:03.414Z,39.17
2022-12-16T04:04:49.162Z,42.20
2022-12-16T04:07:34.859Z,38.33
2022-12-16T04:10:44.433Z,42.05
2022-12-16T04:13:49.867Z,48.20
2022-12-16T04:16:54.258Z,38.25
2022-12-16T04:19:59.366Z,42.15
2022-12-16T04:23:03.736Z,37.70
2022-12-16T04:25:49.870Z,41.05
2022-12-16T04:28:36.005Z,34.53
2022-12-16T04:31:21.839Z,38.58
2022-12-16T04:34:25.941Z,33.47
2022-12-16T04:40:36.062Z,35.55
2022-12-16T04:43:40.756Z,38.83
2022-12-16T04:46:45.365Z,40.78
2022-12-16T04:49:49.875Z,39.45
2022-12-16T04:52:55.488Z,41.05
2022-12-16T04:56:04.125Z,47.22
2022-12-16T04:59:09.162Z,38.13
2022-12-16T05:02:13.768Z,48.50
2022-12-16T05:05:17.985Z,57.15
2022-12-16T05:08:22.406Z,45.28
2022-12-16T05:11:26.762Z,46.15
2022-12-16T05:14:31.281Z,53.08
2022-12-16T05:17:52.542Z,59.17
2022-12-16T05:20:56.865Z,55.47
2022-12-16T05:24:01.243Z,51.08
2022-12-16T05:27:05.787Z,44.42
2022-12-16T05:30:10.337Z,49.13
2022-12-16T05:33:14.979Z,43.80
2022-12-16T05:36:19.588Z,42.67
2022-12-16T05:39:24.264Z,39.33
2022-12-16T05:42:28.619Z,35.72
2022-12-16T05:45:33.261Z,39.92
2022-12-16T05:48:38.750Z,35.00
2022-12-16T05:51:44.310Z,40.10
2022-12-16T05:54:48.836Z,39.38
2022-12-16T05:57:53.451Z,35.72
2022-12-16T06:00:58.035Z,41.53
2022-12-16T06:04:02.649Z,36.92
2022-12-16T06:07:07.158Z,34.65
2022-12-16T06:10:11.688Z,33.97
2022-12-16T06:13:15.948Z,29.15
2022-12-16T06:16:20.536Z,36.58
2022-12-16T06:19:26.007Z,35.55
2022-12-16T06:22:30.507Z,38.70
2022-12-16T06:25:35.023Z,32.85
2022-12-16T06:28:44.392Z,37.03
2022-12-16T06:31:50.351Z,36.88
2022-12-16T06:34:54.668Z,47.63
2022-12-16T06:37:59.060Z,62.13
2022-12-16T06:41:04.529Z,80.57
2022-12-16T06:44:09.043Z,48.38
2022-12-16T06:47:13.528Z,39.28
2022-12-16T06:50:18.267Z,34.78
2022-12-16T06:53:23.069Z,38.85
2022-12-16T06:56:27.639Z,31.30
2022-12-16T06:59:33.205Z,37.03
2022-12-16T07:02:37.940Z,30.90
2022-12-16T07:05:42.152Z,35.38
2022-12-16T07:11:50.932Z,36.58
2022-12-16T07:14:55.349Z,28.48
2022-12-16T07:17:59.767Z,35.55
2022-12-16T07:21:04.261Z,35.15
2022-12-16T07:24:09.008Z,35.22
2022-12-16T07:27:13.521Z,40.25
2022-12-16T07:30:18.159Z,30.52
2022-12-16T07:33:22.635Z,29.33
2022-12-16T07:36:27.610Z,35.42
2022-12-16T07:39:31.866Z,28.83
2022-12-16T07:42:36.288Z,31.52
2022-12-16T07:45:45.346Z,32.72
2022-12-16T07:48:51.828Z,45.60
2022-12-16T07:51:56.971Z,96.13
2022-12-16T07:55:04.146Z,152.00
2022-12-16T07:58:11.539Z,123.65
2022-12-16T08:01:16.231Z,39.38
2022-12-16T08:04:20.811Z,29.95
2022-12-16T08:07:25.413Z,34.38
2022-12-16T08:10:29.946Z,26.23
2022-12-16T08:13:35.812Z,30.30
2022-12-16T08:16:42.032Z,25.55
2022-12-16T08:19:46.814Z,32.45
2022-12-16T08:22:51.631Z,33.08
2022-12-16T08:25:56.940Z,27.67
2022-12-16T08:29:26.890Z,25.63
2022-12-16T08:32:25.669Z,28.77
2022-12-16T08:35:30.411Z,34.92
2022-12-16T08:38:35.010Z,32.10
2022-12-16T08:41:39.111Z,25.77
2022-12-16T08:44:43.312Z,20.35
2022-12-16T08:47:47.657Z,27.90
2022-12-16T08:50:52.046Z,21.13
2022-12-16T08:53:56.475Z,22.45
2022-12-16T08:57:02.109Z,25.73
2022-12-16T09:00:07.036Z,26.77
2022-12-16T09:03:15.852Z,28.50
2022-12-16T09:06:20.387Z,25.77
2022-12-16T09:09:24.733Z,23.65
2022-12-16T09:12:29.181Z,18.92
2022-12-16T09:15:33.624Z,16.15
2022-12-16T09:18:37.876Z,20.30
2022-12-16T09:21:42.369Z,24.35
2022-12-16T09:24:54.079Z,31.42
2022-12-16T09:28:01.242Z,22.75
2022-12-16T09:31:05.632Z,19.63
2022-12-16T09:34:10.029Z,19.80
2022-12-16T09:37:14.540Z,22.83
2022-12-16T09:40:20.064Z,18.58
2022-12-16T09:43:36.104Z,23.48
2022-12-16T09:47:08.387Z,32.08
2022-12-16T09:50:14.889Z,36.20
2022-12-16T09:53:22.577Z,42.60
2022-12-16T09:56:48.261Z,16.95
2022-12-16T09:59:57.280Z,66.35
2022-12-16T10:03:07.453Z,16.75
2022-12-16T10:06:38.636Z,24.60
2022-12-16T10:09:57.090Z,21.95
2022-12-16T10:13:35.370Z,21.38
2022-12-16T10:17:14.585Z,18.38
2022-12-16T10:20:48.687Z,13.63
2022-12-16T10:24:06.437Z,19.92
2022-12-16T10:27:32.156Z,21.85
2022-12-16T10:30:40.019Z,15.05
2022-12-16T10:33:47.729Z,22.73
2022-12-16T10:36:56.250Z,28.65
2022-12-16T10:40:08.905Z,22.45
2022-12-16T10:43:22.648Z,25.10
2022-12-16T10:46:40.995Z,15.45
2022-12-16T10:49:50.821Z,15.90
2022-12-16T10:53:37.271Z,12.40
2022-12-16T10:57:03.227Z,16.13
2022-12-16T11:00:07.369Z,13.30
2022-12-16T11:03:13.018Z,14.35
2022-12-16T11:06:19.757Z,15.05
2022-12-16T11:09:51.781Z,11.90
2022-12-16T11:12:57.290Z,11.27
2022-12-16T11:16:02.680Z,20.30
2022-12-16T11:19:10.436Z,14.23
2022-12-16T11:22:25.953Z,8.73
2022-12-16T11:25:39.551Z,17.52
2022-12-16T11:28:44.004Z,18.40
2022-12-16T11:34:53.197Z,17.20
2022-12-16T11:38:00.419Z,14.27
2022-12-16T11:41:05.433Z,14.60
2022-12-16T11:44:12.582Z,10.07
2022-12-16T11:47:18.262Z,15.23
2022-12-16T11:50:34.353Z,15.18
2022-12-16T11:53:41.653Z,17.63
2022-12-16T11:56:52.644Z,15.32
2022-12-16T11:59:58.706Z,22.45
2022-12-16T12:03:29.618Z,23.23
2022-12-16T12:06:46.112Z,18.88
2022-12-16T12:09:57.408Z,24.55
2022-12-16T12:13:06.458Z,16.52
2022-12-16T12:16:28.164Z,17.27
2022-12-16T12:20:25.250Z,19.25
2022-12-16T12:23:30.001Z,20.50
2022-12-16T12:26:50.031Z,17.73
2022-12-16T12:30:16.007Z,17.13
2022-12-16T12:33:45.316Z,16.40
2022-12-16T12:36:58.436Z,18.00
2022-12-16T12:40:06.245Z,27.70
2022-12-16T12:43:14.045Z,33.13
2022-12-16T12:46:39.829Z,42.20
2022-12-16T12:49:53.608Z,42.42
2022-12-16T12:53:14.349Z,36.17
2022-12-16T12:56:28.161Z,39.05
2022-12-16T12:59:41.030Z,29.85
2022-12-16T13:02:47.753Z,28.38
2022-12-16T13:05:53.859Z,28.83
2022-12-16T13:09:07.414Z,25.88
2022-12-16T13:12:28.213Z,18.20
2022-12-16T13:16:06.660Z,25.48
2022-12-16T13:20:03.285Z,18.17
2022-12-16T13:23:08.158Z,24.65
2022-12-16T13:26:23.386Z,28.48
2022-12-16T13:29:39.132Z,27.20
2022-12-16T13:32:43.951Z,27.33
2022-12-16T13:35:49.710Z,34.55
2022-12-16T13:38:56.029Z,35.33
2022-12-16T13:42:00.873Z,35.50
2022-12-16T13:45:05.368Z,28.92
2022-12-16T13:48:09.927Z,19.83
2022-12-16T13:51:18.828Z,19.05
2022-12-16T13:54:26.331Z,21.08
2022-12-16T13:57:32.220Z,26.75
2022-12-16T14:00:39.400Z,22.48
2022-12-16T14:04:01.412Z,19.17
2022-12-16T14:07:06.206Z,21.05
2022-12-16T14:10:10.487Z,20.08
2022-12-16T14:13:21.243Z,21.05
2022-12-16T14:16:39.214Z,33.53
2022-12-16T14:19:52.875Z,18.25
2022-12-16T14:23:17.964Z,16.23
2022-12-16T14:26:33.020Z,14.52
2022-12-16T14:29:45.236Z,17.85
2022-12-16T14:32:52.218Z,10.93
2022-12-16T14:36:08.362Z,15.55
2022-12-16T14:39:13.343Z,13.63
2022-12-16T14:42:18.244Z,20.17
2022-12-16T14:45:34.513Z,23.33
2022-12-16T14:48:53.484Z,23.67
2022-12-16T14:52:06.243Z,16.50
2022-12-16T14:55:10.677Z,13.88
2022-12-16T14:58:33.548Z,16.65
2022-12-16T15:01:41.374Z,18.55
2022-12-16T15:04:46.171Z,14.95
2022-12-16T15:07:55.945Z,18.10
2022-12-16T15:11:00.655Z,15.43
2022-12-16T15:14:06.687Z,19.60
2022-12-16T15:17:12.007Z,18.20
2022-12-16T15:20:16.296Z,30.98
2022-12-16T15:23:20.921Z,50.08
2022-12-16T15:26:25.753Z,30.33
2022-12-16T15:29:54.610Z,34.03
2022-12-16T15:33:00.735Z,93.38
2022-12-16T15:36:06.054Z,80.40
2022-12-16T15:39:10.697Z,49.85
2022-12-16T15:42:15.405Z,30.88
2022-12-16T15:45:20.093Z,26.95
2022-12-16T15:48:43.212Z,26.20
2022-12-16T15:52:02.286Z,25.30
2022-12-16T15:55:13.563Z,37.10
2022-12-16T15:58:18.130Z,38.75
2022-12-16T16:01:24.093Z,38.38
2022-12-16T16:04:39.565Z,36.33
2022-12-16T16:07:45.741Z,35.60
2022-12-16T16:10:50.317Z,37.03
2022-12-16T16:13:57.989Z,35.45
2022-12-16T16:17:07.085Z,37.80
2022-12-16T16:20:11.681Z,33.33
2022-12-16T16:23:17.313Z,28.70
2022-12-16T16:26:21.898Z,27.02
2022-12-16T16:29:30.026Z,28.52
2022-12-16T16:32:34.545Z,23.70
2022-12-16T16:35:39.014Z,32.15
2022-12-16T16:38:43.538Z,25.30
2022-12-16T16:41:48.178Z,25.08
2022-12-16T16:44:52.783Z,36.80
2022-12-16T16:47:57.835Z,23.27
2022-12-16T16:51:03.372Z,28.17
2022-12-16T16:54:08.969Z,31.25
2022-12-16T16:57:13.511Z,29.08
2022-12-16T17:00:18.284Z,36.95
2022-12-16T17:03:23.084Z,29.73
2022-12-16T17:06:27.387Z,27.42
2022-12-16T17:09:31.732Z,21.27
2022-12-16T17:12:41.501Z,30.75
2022-12-16T17:15:51.782Z,18.40
2022-12-16T17:18:56.116Z,16.98
2022-12-16T17:22:01.998Z,38.70
2022-12-16T17:25:06.554Z,42.38
2022-12-16T17:28:11.339Z,31.20
2022-12-16T17:31:16.248Z,20.70
2022-12-16T17:34:21.761Z,34.63
2022-12-16T17:37:26.484Z,29.60
2022-12-16T17:40:31.097Z,31.48
2022-12-16T17:43:36.018Z,28.40
2022-12-16T17:46:42.868Z,26.85
2022-12-16T17:49:47.456Z,31.92
2022-12-16T17:52:52.165Z,26.85
2022-12-16T17:55:57.044Z,33.88
2022-12-16T17:59:02.010Z,30.98
2022-12-16T18:02:08.456Z,35.60
2022-12-16T18:05:13.115Z,33.05
2022-12-16T18:08:18.532Z,36.53
2022-12-16T18:11:23.074Z,39.97
2022-12-16T18:14:28.698Z,34.17
2022-12-16T18:17:33.918Z,44.25
2022-12-16T18:20:39.641Z,36.53
2022-12-16T18:23:48.402Z,26.27
2022-12-16T18:26:53.049Z,28.92
2022-12-16T18:29:57.716Z,23.48
2022-12-16T18:33:02.263Z,24.73
2022-12-16T18:36:06.641Z,20.92
2022-12-16T18:39:11.321Z,22.98
2022-12-16T18:42:16.045Z,23.58
2022-12-16T18:45:20.638Z,30.30
2022-12-16T18:48:26.274Z,33.55
2022-12-16T18:51:30.866Z,34.13
2022-12-16T18:54:35.371Z,40.58
2022-12-16T18:57:40.992Z,37.25
2022-12-16T19:00:45.545Z,30.10
2022-12-16T19:03:50.246Z,32.00
2022-12-16T19:06:54.739Z,38.10
2022-12-16T19:10:00.295Z,34.30
2022-12-16T19:13:04.862Z,31.60
2022-12-16T19:16:16.177Z,30.67
2022-12-16T19:19:22.821Z,31.30
2022-12-16T19:22:28.298Z,32.25
2022-12-16T19:25:35.001Z,26.63
2022-12-16T19:28:42.125Z,33.28
2022-12-16T19:31:47.388Z,37.25
2022-12-16T19:34:53.019Z,38.13
2022-12-16T19:38:02.057Z,33.15
2022-12-16T19:41:13.073Z,39.00
2022-12-16T19:44:17.450Z,30.80
2022-12-16T19:47:22.625Z,34.17
2022-12-16T19:50:27.495Z,35.97
2022-12-16T19:53:32.046Z,38.72
2022-12-16T19:56:37.295Z,32.47
2022-12-16T19:59:42.831Z,37.08
2022-12-16T20:02:48.620Z,28.98
2022-12-16T20:05:58.414Z,31.80
2022-12-16T20:09:02.877Z,31.85
2022-12-16T20:12:07.621Z,22.60
2022-12-16T20:15:12.176Z,27.10
2022-12-16T20:18:18.758Z,31.70
2022-12-16T20:21:35.497Z,20.75
2022-12-16T20:24:49.502Z,18.65
2022-12-16T20:28:07.213Z,20.70
2022-12-16T20:31:16.414Z,18.77
2022-12-16T20:34:20.690Z,21.23
2022-12-16T20:37:27.164Z,20.33
2022-12-16T20:40:32.203Z,22.50
2022-12-16T20:43:36.979Z,20.10
2022-12-16T20:46:41.656Z,23.33
2022-12-16T20:49:53.530Z,23.15
2022-12-16T20:53:02.710Z,21.27
2022-12-16T20:56:09.070Z,22.08
2022-12-16T20:59:15.887Z,25.95
2022-12-16T21:02:23.466Z,24.42
2022-12-16T21:05:29.065Z,22.70
2022-12-16T21:11:39.011Z,28.08
2022-12-16T21:14:43.506Z,31.17
2022-12-16T21:17:48.224Z,28.75
2022-12-16T21:21:00.079Z,29.50
2022-12-16T21:24:05.159Z,29.80
2022-12-16T21:27:10.608Z,22.52
2022-12-16T21:30:15.117Z,25.60
2022-12-16T21:33:19.833Z,27.20
2022-12-16T21:36:38.609Z,29.30
2022-12-16T21:39:45.255Z,23.80
2022-12-16T21:42:56.424Z,26.13
2022-12-16T21:46:01.023Z,30.15
2022-12-16T21:49:08.183Z,31.83
2022-12-16T21:52:14.092Z,33.00
2022-12-16T21:55:19.246Z,28.02
2022-12-16T21:58:29.089Z,30.23
2022-12-16T22:01:33.714Z,32.58
2022-12-16T22:04:37.981Z,29.40
2022-12-16T22:07:42.643Z,26.10
2022-12-16T22:10:47.221Z,22.75
2022-12-16T22:13:51.955Z,22.88
2022-12-16T22:16:56.767Z,28.40
2022-12-16T22:20:01.463Z,26.85
2022-12-16T22:23:05.881Z,26.13
2022-12-16T22:26:18.340Z,31.55
2022-12-16T22:29:25.675Z,28.50
2022-12-16T22:32:29.765Z,28.90
2022-12-16T22:35:34.444Z,28.48
2022-12-16T22:38:39.061Z,26.92
2022-12-16T22:41:43.524Z,30.52
2022-12-16T22:44:48.024Z,35.10
2022-12-16T22:47:53.565Z,45.47
2022-12-16T22:50:59.734Z,35.10
2022-12-16T22:54:06.291Z,38.55
2022-12-16T22:57:10.927Z,36.45
2022-12-16T23:00:15.759Z,32.60
2022-12-16T23:03:20.592Z,34.88
2022-12-16T23:06:25.176Z,36.88
2022-12-16T23:09:29.785Z,32.03
2022-12-16T23:12:34.111Z,37.25
2022-12-16T23:15:38.417Z,34.80
2022-12-16T23:18:43.845Z,34.83
2022-12-16T23:21:48.335Z,29.20
2022-12-16T23:24:52.832Z,27.15
2022-12-16T23:27:58.401Z,33.20
2022-12-16T23:31:03.588Z,35.47
2022-12-16T23:34:07.939Z,32.15
2022-12-16T23:37:12.466Z,35.90
2022-12-16T23:40:17.650Z,34.28
2022-12-16T23:43:22.803Z,39.40
2022-12-16T23:46:27.889Z,42.42
2022-12-16T23:49:32.493Z,46.28
2022-12-16T23:52:37.251Z,43.70
2022-12-16T23:55:41.773Z,30.20
2022-12-16T23:58:48.617Z,39.00
